createdAt,value
2022-10-17T00:02:43.704Z,32.60
2022-10-17T00:07:49.117Z,29.17
2022-10-17T00:12:54.286Z,28.37
2022-10-17T00:18:00.643Z,33.10
2022-10-17T00:23:05.978Z,40.37
2022-10-17T00:28:13.612Z,30.87
2022-10-17T00:33:20.702Z,31.43
2022-10-17T00:38:28.263Z,39.70
2022-10-17T00:43:51.294Z,33.07
2022-10-17T00:48:59.240Z,40.53
2022-10-17T00:54:05.316Z,80.80
2022-10-17T00:59:12.709Z,39.83
2022-10-17T01:04:20.037Z,33.50
2022-10-17T01:09:28.674Z,33.80
2022-10-17T01:14:39.572Z,30.23
2022-10-17T01:20:07.219Z,26.23
2022-10-17T01:25:30.496Z,33.60
2022-10-17T01:30:59.114Z,38.43
2022-10-17T01:36:21.944Z,29.30
2022-10-17T01:41:30.099Z,27.93
2022-10-17T01:46:42.999Z,28.50
2022-10-17T01:51:52.759Z,37.63
2022-10-17T01:57:03.796Z,30.80
2022-10-17T02:02:12.161Z,40.67
2022-10-17T02:07:17.911Z,36.40
2022-10-17T02:12:46.583Z,32.40
2022-10-17T02:18:18.790Z,29.00
2022-10-17T02:23:45.026Z,31.27
2022-10-17T02:29:10.891Z,30.13
2022-10-17T02:34:24.773Z,29.63
2022-10-17T02:39:32.822Z,28.40
2022-10-17T02:44:41.546Z,28.90
2022-10-17T02:49:49.749Z,27.87
2022-10-17T02:54:57.952Z,34.80
2022-10-17T03:00:05.443Z,33.43
2022-10-17T03:05:12.972Z,41.83
2022-10-17T03:10:19.651Z,34.37
2022-10-17T03:15:25.984Z,26.00
2022-10-17T03:20:31.258Z,30.57
2022-10-17T03:25:36.539Z,37.63
2022-10-17T03:30:41.913Z,40.20
2022-10-17T03:35:47.272Z,45.57
2022-10-17T03:40:58.560Z,51.20
2022-10-17T03:46:05.344Z,35.00
2022-10-17T03:51:11.580Z,30.73
2022-10-17T03:56:19.319Z,33.93
2022-10-17T04:01:25.916Z,35.37
2022-10-17T04:06:32.891Z,38.27
2022-10-17T04:11:38.255Z,29.90
2022-10-17T04:16:43.486Z,42.90
2022-10-17T04:21:50.995Z,38.87
2022-10-17T04:26:56.284Z,36.77
2022-10-17T04:32:04.797Z,41.33
2022-10-17T04:37:11.681Z,38.87
2022-10-17T04:42:17.055Z,45.20
2022-10-17T04:47:25.591Z,38.93
2022-10-17T04:52:32.334Z,43.77
2022-10-17T04:57:40.126Z,50.33
2022-10-17T05:02:45.839Z,57.07
2022-10-17T05:07:52.177Z,52.63
2022-10-17T05:12:57.437Z,42.83
2022-10-17T05:18:07.075Z,44.87
2022-10-17T05:23:13.740Z,54.20
2022-10-17T05:28:18.850Z,35.13
2022-10-17T05:33:24.701Z,44.03
2022-10-17T05:38:32.226Z,33.53
2022-10-17T05:43:37.486Z,50.37
2022-10-17T05:48:43.878Z,41.83
2022-10-17T05:53:51.063Z,46.07
2022-10-17T05:59:00.730Z,41.43
2022-10-17T06:04:04.312Z,45.73
2022-10-17T06:09:09.616Z,43.27
2022-10-17T06:14:17.246Z,56.60
2022-10-17T06:19:22.510Z,37.57
2022-10-17T06:29:51.914Z,50.63
2022-10-17T06:34:59.946Z,47.77
2022-10-17T06:40:09.146Z,47.83
2022-10-17T06:45:33.734Z,39.43
2022-10-17T06:50:39.821Z,45.40
2022-10-17T06:55:46.771Z,38.53
2022-10-17T07:00:52.176Z,50.53
2022-10-17T07:05:58.933Z,49.53
2022-10-17T07:11:12.749Z,40.27
2022-10-17T07:16:20.908Z,34.63
2022-10-17T07:21:39.224Z,39.53
2022-10-17T07:26:44.089Z,33.20
2022-10-17T07:31:53.734Z,30.93
2022-10-17T07:37:10.753Z,38.27
2022-10-17T07:42:17.335Z,38.60
2022-10-17T07:47:30.383Z,37.30
2022-10-17T07:52:49.679Z,33.10
2022-10-17T07:57:55.220Z,38.10
2022-10-17T08:03:08.912Z,42.13
2022-10-17T08:08:17.029Z,32.57
2022-10-17T08:13:23.466Z,31.07
2022-10-17T08:18:31.487Z,34.33
2022-10-17T08:23:38.671Z,37.63
2022-10-17T08:28:44.362Z,31.67
2022-10-17T08:33:54.828Z,34.43
2022-10-17T08:39:04.861Z,30.93
2022-10-17T08:44:31.443Z,28.27
2022-10-17T08:49:56.428Z,30.03
2022-10-17T09:00:29.539Z,28.80
2022-10-17T09:05:48.122Z,28.87
2022-10-17T09:11:08.538Z,30.43
2022-10-17T09:16:32.336Z,30.60
2022-10-17T09:21:44.137Z,26.17
2022-10-17T09:32:38.690Z,24.73
2022-10-17T09:37:53.895Z,21.57
2022-10-17T09:43:03.019Z,22.03
2022-10-17T09:48:23.552Z,23.30
2022-10-17T09:53:31.823Z,26.03
2022-10-17T09:58:46.146Z,25.53
2022-10-17T10:04:15.197Z,23.93
2022-10-17T10:09:24.153Z,22.65
2022-10-17T10:20:30.984Z,20.97
2022-10-17T10:25:42.737Z,24.87
2022-10-17T10:30:59.932Z,24.97
2022-10-17T10:36:10.834Z,22.77
2022-10-17T10:47:22.377Z,23.22
2022-10-17T10:52:46.532Z,23.00
2022-10-17T10:57:55.172Z,23.15
2022-10-17T11:03:15.880Z,20.72
2022-10-17T11:08:36.647Z,22.05
2022-10-17T11:13:50.678Z,21.42
2022-10-17T11:19:32.303Z,22.00
2022-10-17T11:30:39.074Z,18.25
2022-10-17T11:35:53.418Z,16.45
2022-10-17T11:41:18.746Z,19.67
2022-10-17T11:46:45.698Z,20.92
2022-10-17T11:52:01.193Z,18.03
2022-10-17T11:57:44.032Z,20.35
2022-10-17T12:03:23.885Z,26.87
2022-10-17T12:08:57.834Z,23.25
2022-10-17T12:19:39.612Z,29.63
2022-10-17T12:24:51.369Z,25.27
2022-10-17T12:30:21.626Z,29.90
2022-10-17T12:35:29.932Z,24.90
2022-10-17T12:41:04.179Z,26.10
2022-10-17T12:46:37.447Z,25.65
2022-10-17T12:52:09.243Z,30.40
2022-10-17T12:57:26.714Z,28.80
2022-10-17T13:02:35.521Z,31.68
2022-10-17T13:07:50.076Z,25.82
2022-10-17T13:13:29.214Z,28.77
2022-10-17T13:18:43.736Z,26.48
2022-10-17T13:23:56.521Z,24.52
2022-10-17T13:29:06.752Z,23.53
2022-10-17T13:34:20.815Z,23.25
2022-10-17T13:39:44.997Z,28.90
2022-10-17T13:44:37.803Z,22.32
2022-10-17T13:49:45.243Z,21.37
2022-10-17T13:54:51.949Z,31.70
2022-10-17T14:00:00.060Z,23.18
2022-10-17T14:05:19.469Z,22.20
2022-10-17T14:10:26.839Z,20.32
2022-10-17T14:15:35.524Z,23.90
2022-10-17T14:21:19.751Z,22.15
2022-10-17T14:25:52.979Z,22.43
2022-10-17T14:36:48.941Z,27.30
2022-10-17T14:42:22.599Z,25.50
2022-10-17T14:47:43.697Z,21.60
2022-10-17T14:53:03.619Z,28.15
2022-10-17T14:58:22.123Z,26.80
2022-10-17T15:03:32.194Z,38.33
2022-10-17T15:08:40.687Z,36.87
2022-10-17T15:13:49.808Z,30.30
2022-10-17T15:19:15.703Z,28.67
2022-10-17T15:24:24.584Z,34.47
2022-10-17T15:29:32.620Z,43.77
2022-10-17T15:34:38.063Z,43.23
2022-10-17T15:39:43.300Z,46.47
2022-10-17T15:44:50.791Z,47.80
2022-10-17T15:50:09.001Z,54.70
2022-10-17T15:55:36.491Z,40.00
2022-10-17T16:00:43.364Z,34.30
2022-10-17T16:06:14.233Z,36.37
2022-10-17T16:11:39.909Z,38.77
2022-10-17T16:17:05.506Z,43.47
2022-10-17T16:22:36.979Z,40.93
2022-10-17T16:27:45.019Z,56.07
2022-10-17T16:32:59.188Z,42.50
2022-10-17T16:38:04.888Z,38.57
2022-10-17T16:43:15.717Z,39.03
2022-10-17T16:48:43.058Z,43.93
2022-10-17T16:53:54.102Z,46.73
2022-10-17T16:59:00.765Z,43.73
2022-10-17T17:04:17.775Z,72.40
2022-10-17T17:09:30.915Z,48.77
2022-10-17T17:14:46.672Z,50.10
2022-10-17T17:19:53.042Z,51.93
2022-10-17T17:25:01.436Z,63.33
2022-10-17T17:30:10.838Z,76.20
2022-10-17T17:35:18.731Z,57.70
2022-10-17T17:40:24.585Z,53.03
2022-10-17T17:45:31.325Z,39.80
2022-10-17T17:50:42.854Z,50.90
2022-10-17T17:55:50.829Z,63.73
2022-10-17T18:00:57.607Z,59.40
2022-10-17T18:06:22.913Z,49.97
2022-10-17T18:11:28.776Z,50.63
2022-10-17T18:16:36.283Z,50.90
2022-10-17T18:21:44.547Z,58.17
2022-10-17T18:26:54.085Z,54.13
2022-10-17T18:31:59.488Z,46.43
2022-10-17T18:37:05.086Z,49.73
2022-10-17T18:42:12.462Z,52.60
2022-10-17T18:47:20.688Z,49.87
2022-10-17T18:52:27.809Z,46.90
2022-10-17T18:57:33.134Z,43.27
2022-10-17T19:02:41.692Z,54.03
2022-10-17T19:07:50.110Z,71.60
2022-10-17T19:12:59.118Z,67.40
2022-10-17T19:18:07.340Z,74.47
2022-10-17T19:23:17.100Z,65.77
2022-10-17T19:28:26.280Z,51.87
2022-10-17T19:33:34.766Z,53.20
2022-10-17T19:38:44.138Z,52.73
2022-10-17T19:43:52.683Z,51.83
2022-10-17T19:49:02.755Z,47.57
2022-10-17T19:54:08.000Z,67.07
2022-10-17T19:59:32.511Z,59.20
2022-10-17T20:05:00.208Z,52.73
2022-10-17T20:09:59.014Z,59.90
2022-10-17T20:15:06.617Z,46.97
2022-10-17T20:20:13.341Z,50.53
2022-10-17T20:25:21.826Z,48.33
2022-10-17T20:30:32.009Z,46.97
2022-10-17T20:35:42.518Z,81.27
2022-10-17T20:40:51.334Z,59.30
2022-10-17T20:46:04.601Z,58.17
2022-10-17T20:51:12.025Z,69.10
2022-10-17T20:56:23.325Z,83.50
2022-10-17T21:01:35.143Z,107.23
2022-10-17T21:07:01.515Z,80.93
2022-10-17T21:12:07.034Z,78.97
2022-10-17T21:17:12.247Z,63.07
2022-10-17T21:22:18.414Z,72.17
2022-10-17T21:27:42.977Z,72.90
2022-10-17T21:32:53.409Z,72.40
2022-10-17T21:37:59.437Z,68.70
2022-10-17T21:43:08.428Z,88.60
2022-10-17T21:48:16.847Z,65.17
2022-10-17T21:53:23.888Z,71.23
2022-10-17T21:58:30.493Z,70.33
2022-10-17T22:03:44.211Z,67.40
2022-10-17T22:08:55.130Z,63.00
2022-10-17T22:14:09.553Z,62.63
2022-10-17T22:19:38.272Z,55.37
2022-10-17T22:24:47.335Z,61.03
2022-10-17T22:29:52.495Z,63.30
2022-10-17T22:34:58.202Z,83.70
2022-10-17T22:40:06.698Z,70.77
2022-10-17T22:45:14.883Z,66.30
2022-10-17T22:50:22.024Z,54.73
2022-10-17T22:55:28.989Z,59.57
2022-10-17T23:00:34.208Z,56.83
2022-10-17T23:05:40.876Z,64.17
2022-10-17T23:11:05.535Z,54.93
2022-10-17T23:16:11.127Z,56.13
2022-10-17T23:21:17.504Z,58.07
2022-10-17T23:26:22.630Z,52.10
2022-10-17T23:31:30.340Z,53.00
2022-10-17T23:36:38.935Z,57.33
2022-10-17T23:41:45.745Z,51.90
2022-10-17T23:46:57.048Z,46.63
2022-10-17T23:52:04.798Z,54.50
2022-10-17T23:57:10.694Z,47.17
